Time;durP1;ratioP1;P1;durP2;ratioP2;P2;SDS_P1;SDS_P2;PMS_P1;PMS_P2;Temp;Humidity;BMP_temperature;BMP_pressure;BME280_temperature;BME280_humidity;BME280_pressure;Samples;Min_cycle;Max_cycle;Signal;HPM_P1;HPM_P2
2022/11/08 00:03:44;;;;;;;4.80;4.30;;;10.80;40.60;;;;;;10415679;28;20248;-73
2022/11/08 00:14:10;;;;;;;5.67;5.17;;;10.60;40.50;;;;;;10413444;28;20315;-69
2022/11/08 00:19:13;;;;;;;5.57;5.07;;;10.60;40.50;;;;;;10413803;28;20241;-69
2022/11/08 00:24:17;;;;;;;4.67;4.27;;;10.50;40.40;;;;;;10415005;28;21061;-69
2022/11/08 00:29:20;;;;;;;4.80;4.30;;;10.50;40.40;;;;;;10409189;28;20222;-69
2022/11/08 00:34:23;;;;;;;4.20;3.80;;;10.40;40.30;;;;;;10412639;28;20236;-69
2022/11/08 00:39:28;;;;;;;7.07;4.57;;;10.40;40.30;;;;;;10406431;28;20240;-69
2022/11/08 00:44:31;;;;;;;4.83;4.43;;;10.40;40.40;;;;;;10413587;28;20627;-69
2022/11/08 00:49:34;;;;;;;4.90;4.40;;;10.30;40.20;;;;;;10409193;28;20640;-69
2022/11/08 00:54:39;;;;;;;4.93;4.40;;;10.30;40.20;;;;;;10416902;28;20241;-67
2022/11/08 00:59:42;;;;;;;4.50;4.10;;;10.30;40.20;;;;;;10414617;28;20610;-67
2022/11/08 01:04:45;;;;;;;4.90;4.40;;;10.20;40.10;;;;;;10414640;28;20232;-69
2022/11/08 01:09:50;;;;;;;4.57;4.00;;;10.20;40.10;;;;;;10413537;28;20268;-73
2022/11/08 01:14:53;;;;;;;3.50;3.20;;;10.20;40.50;;;;;;10414069;28;20637;-74
2022/11/08 01:19:56;;;;;;;5.17;4.40;;;10.20;40.10;;;;;;10410943;28;20280;-73
2022/11/08 01:25:01;;;;;;;4.40;4.00;;;10.10;40.20;;;;;;10413480;28;20272;-73
2022/11/08 01:30:05;;;;;;;4.73;3.37;;;10.00;40.30;;;;;;10410330;28;20229;-73
2022/11/08 01:35:09;;;;;;;4.03;3.73;;;10.00;40.30;;;;;;10410235;28;20720;-73
2022/11/08 01:40:14;;;;;;;4.03;3.70;;;10.00;40.30;;;;;;10409806;28;20256;-73
2022/11/08 01:45:50;;;;;;;4.00;3.60;;;9.90;41.10;;;;;;10412604;28;20234;-73
2022/11/08 01:50:55;;;;;;;3.67;3.40;;;9.90;41.20;;;;;;10410977;28;20777;-73
2022/11/08 01:56:01;;;;;;;3.60;3.30;;;9.90;41.50;;;;;;10414063;28;20283;-69
2022/11/08 02:01:04;;;;;;;4.03;3.33;;;9.80;41.50;;;;;;10408732;28;20233;-69
2022/11/08 02:06:08;;;;;;;3.90;3.50;;;9.80;41.50;;;;;;10411414;28;20237;-67
2022/11/08 02:11:16;;;;;;;3.43;3.13;;;9.80;41.50;;;;;;10414119;28;21528;-69
2022/11/08 02:16:19;;;;;;;3.30;3.03;;;9.80;41.60;;;;;;10406349;28;21021;-69
2022/11/08 02:21:27;;;;;;;4.10;3.70;;;9.80;41.50;;;;;;10409070;28;20241;-69
2022/11/08 02:26:33;;;;;;;3.33;3.03;;;9.70;41.60;;;;;;10408589;28;20778;-69
2022/11/08 02:31:36;;;;;;;3.00;2.80;;;9.70;41.50;;;;;;10410103;28;20236;-69
2022/11/08 02:36:40;;;;;;;5.37;3.60;;;9.70;41.40;;;;;;10409282;28;20233;-69
2022/11/08 02:41:45;;;;;;;6.70;3.50;;;9.60;41.40;;;;;;10412574;28;20271;-69
2022/11/08 02:46:48;;;;;;;5.73;3.00;;;9.60;41.80;;;;;;10409255;28;21024;-69
2022/11/08 02:51:52;;;;;;;3.43;3.17;;;9.50;41.50;;;;;;10410209;28;20236;-69
2022/11/08 02:56:57;;;;;;;3.37;3.07;;;9.50;41.60;;;;;;10415489;28;20236;-69
2022/11/08 03:02:00;;;;;;;4.10;3.70;;;9.50;41.60;;;;;;10413976;28;20237;-69
2022/11/08 03:07:03;;;;;;;3.33;3.03;;;9.40;41.40;;;;;;10416720;28;20229;-70
2022/11/08 03:12:08;;;;;;;3.37;3.07;;;9.50;41.50;;;;;;10418168;28;20234;-69
2022/11/08 03:17:11;;;;;;;4.87;3.53;;;9.40;41.50;;;;;;10417075;28;20236;-69
2022/11/08 03:22:15;;;;;;;3.80;3.50;;;9.30;41.50;;;;;;10417159;28;20410;-69
2022/11/08 03:27:20;;;;;;;3.50;3.20;;;9.30;41.40;;;;;;10419124;28;20279;-69
2022/11/08 03:32:23;;;;;;;3.50;3.20;;;9.20;41.40;;;;;;10415736;28;20596;-73
2022/11/08 03:37:26;;;;;;;4.53;3.57;;;9.20;41.50;;;;;;10417267;28;20249;-73
2022/11/08 03:42:30;;;;;;;4.40;3.37;;;9.10;41.30;;;;;;10417830;28;20244;-73
2022/11/08 03:47:37;;;;;;;3.80;3.50;;;9.10;41.50;;;;;;10418063;28;20236;-73
2022/11/08 03:52:41;;;;;;;4.27;3.53;;;9.00;41.60;;;;;;10421308;28;20229;-73
2022/11/08 03:57:47;;;;;;;4.00;3.70;;;9.00;41.50;;;;;;10415364;28;20237;-69
2022/11/08 04:02:51;;;;;;;3.50;3.20;;;8.90;41.50;;;;;;10415452;28;20801;-73
2022/11/08 04:07:54;;;;;;;3.10;2.90;;;8.90;41.70;;;;;;10415397;28;20241;-73
2022/11/08 04:23:45;;;;;;;3.03;2.77;;;8.90;41.70;;;;;;10416850;28;20225;-74
2022/11/08 04:28:49;;;;;;;3.67;2.83;;;8.90;41.70;;;;;;10423836;28;20232;-67
2022/11/08 04:33:53;;;;;;;3.37;3.07;;;8.80;41.70;;;;;;10417450;28;20762;-69
2022/11/08 04:38:56;;;;;;;3.50;3.20;;;8.80;41.60;;;;;;10419877;28;20229;-69
2022/11/08 04:44:00;;;;;;;3.97;3.43;;;8.80;41.70;;;;;;10413105;28;20320;-69
2022/11/08 04:49:03;;;;;;;2.73;2.53;;;8.80;41.70;;;;;;10419538;28;21223;-68
2022/11/08 04:54:07;;;;;;;3.80;3.50;;;8.70;41.60;;;;;;10418325;28;20230;-68
2022/11/08 04:59:11;;;;;;;4.20;3.80;;;8.70;41.80;;;;;;10421354;28;20279;-69
2022/11/08 05:04:14;;;;;;;4.33;3.60;;;8.70;41.80;;;;;;10416323;28;20262;-68
2022/11/08 05:09:17;;;;;;;4.50;3.37;;;8.70;41.80;;;;;;10422424;28;20225;-68
2022/11/08 05:14:22;;;;;;;3.07;2.77;;;8.60;41.60;;;;;;10417055;28;20225;-68
2022/11/08 05:24:42;;;;;;;4.07;3.50;;;8.60;41.60;;;;;;10411223;28;20283;-68
2022/11/08 05:29:47;;;;;;;3.80;3.50;;;8.60;41.70;;;;;;10416678;28;20948;-68
2022/11/08 05:34:50;;;;;;;4.33;3.93;;;8.60;41.70;;;;;;10412499;28;20291;-74
2022/11/08 05:39:53;;;;;;;4.50;4.10;;;8.50;41.50;;;;;;10414778;28;20276;-73
2022/11/08 05:44:58;;;;;;;4.27;3.87;;;8.50;41.60;;;;;;10413358;28;20240;-69
2022/11/08 05:50:01;;;;;;;4.73;4.00;;;8.40;41.50;;;;;;10411666;28;20233;-68
2022/11/08 05:55:04;;;;;;;4.73;4.33;;;8.40;41.50;;;;;;10416646;28;20237;-74
2022/11/08 06:00:12;;;;;;;5.23;4.73;;;8.40;41.50;;;;;;10417489;28;20233;-73
2022/11/08 06:05:15;;;;;;;7.83;6.80;;;8.40;41.60;;;;;;10420747;28;20644;-74
2022/11/08 06:10:18;;;;;;;7.63;6.83;;;8.30;41.50;;;;;;10427209;28;20236;-69
2022/11/08 06:15:23;;;;;;;8.70;7.80;;;8.30;41.60;;;;;;10418342;28;20256;-70
2022/11/08 06:20:26;;;;;;;9.47;8.53;;;8.30;41.60;;;;;;10422751;28;20240;-70
2022/11/08 06:25:29;;;;;;;10.53;9.03;;;8.20;41.60;;;;;;10419946;28;20230;-69
2022/11/08 06:30:34;;;;;;;9.50;8.50;;;8.30;42.70;;;;;;10430985;28;20225;-69
2022/11/08 06:35:37;;;;;;;10.07;7.57;;;8.30;42.10;;;;;;10431257;28;20245;-69
2022/11/08 06:40:41;;;;;;;11.83;10.63;;;8.40;42.00;;;;;;10429276;28;20236;-69
2022/11/08 06:45:46;;;;;;;11.97;10.63;;;8.40;41.80;;;;;;10432630;28;20235;-69
2022/11/08 06:50:49;;;;;;;13.13;11.20;;;8.40;42.00;;;;;;10421497;28;20228;-69
2022/11/08 06:55:52;;;;;;;12.10;9.47;;;8.30;41.90;;;;;;10427882;28;20240;-69
2022/11/08 07:00:57;;;;;;;9.33;7.67;;;8.30;42.00;;;;;;10421602;28;20234;-69
2022/11/08 07:06:02;;;;;;;5.87;5.37;;;8.30;42.10;;;;;;10429255;28;20244;-69
2022/11/08 07:11:06;;;;;;;5.20;4.70;;;8.30;42.30;;;;;;10426477;28;20226;-69
2022/11/08 07:16:10;;;;;;;4.53;4.23;;;8.30;42.30;;;;;;10419416;28;20233;-70
2022/11/08 07:21:13;;;;;;;4.87;4.47;;;8.30;42.50;;;;;;10427344;28;20247;-69
2022/11/08 07:26:17;;;;;;;4.73;4.33;;;8.30;42.60;;;;;;10425469;28;20233;-69
2022/11/08 07:31:22;;;;;;;5.40;4.90;;;8.40;42.80;;;;;;10424300;28;20273;-73
2022/11/08 07:36:25;;;;;;;5.23;4.63;;;8.50;43.20;;;;;;10424142;28;20264;-73
2022/11/08 07:41:29;;;;;;;6.53;5.10;;;8.50;43.30;;;;;;10426835;28;20244;-67
2022/11/08 07:46:33;;;;;;;5.63;5.20;;;8.60;43.50;;;;;;10432340;28;20240;-67
2022/11/08 07:51:37;;;;;;;6.50;5.00;;;8.70;43.90;;;;;;10429390;28;20279;-67
2022/11/08 07:56:40;;;;;;;7.17;5.33;;;8.90;44.20;;;;;;10423684;28;20229;-67
2022/11/08 08:01:44;;;;;;;4.63;4.20;;;9.00;44.40;;;;;;10428731;28;20233;-67
2022/11/08 08:06:48;;;;;;;4.50;4.10;;;9.30;44.90;;;;;;10424621;28;20230;-67
2022/11/08 08:11:51;;;;;;;9.13;4.20;;;9.40;44.70;;;;;;10425529;28;20323;-67
2022/11/08 08:16:56;;;;;;;5.33;4.13;;;9.60;45.00;;;;;;10424424;28;20229;-67
2022/11/08 08:21:59;;;;;;;4.97;3.63;;;9.90;45.40;;;;;;10431544;28;20228;-67
2022/11/08 08:27:02;;;;;;;3.70;3.40;;;10.10;44.30;;;;;;10428688;28;20221;-68
2022/11/08 08:32:07;;;;;;;3.67;3.30;;;10.30;44.60;;;;;;10425732;28;20286;-67
2022/11/08 08:37:14;;;;;;;3.37;3.00;;;10.50;45.00;;;;;;10421256;28;20232;-67
2022/11/08 08:42:17;;;;;;;3.50;3.20;;;10.80;44.70;;;;;;10420353;28;21110;-67
2022/11/08 08:47:22;;;;;;;4.77;3.33;;;11.10;44.60;;;;;;10420700;28;20311;-69
2022/11/08 08:52:25;;;;;;;5.17;3.37;;;11.40;44.80;;;;;;10418151;28;20233;-69
2022/11/08 08:57:28;;;;;;;2.90;2.70;;;11.60;44.60;;;;;;10419278;28;20291;-69
2022/11/08 09:02:33;;;;;;;3.37;2.87;;;11.90;44.70;;;;;;10420834;28;20718;-69
2022/11/08 09:07:42;;;;;;;4.60;2.77;;;12.20;44.70;;;;;;10424374;28;20316;-69
2022/11/08 09:12:45;;;;;;;3.30;2.80;;;12.40;44.20;;;;;;10421465;28;20259;-69
2022/11/08 09:17:53;;;;;;;2.97;2.67;;;12.70;44.20;;;;;;10418955;28;20232;-69
2022/11/08 09:23:04;;;;;;;3.07;2.77;;;12.90;43.80;;;;;;10471954;27;20936;-70
2022/11/08 09:28:08;;;;;;;2.60;2.40;;;13.10;43.30;;;;;;10416418;28;20224;-69
2022/11/08 09:33:11;;;;;;;3.67;3.17;;;13.30;43.30;;;;;;10413544;28;20796;-70
2022/11/08 09:38:16;;;;;;;4.33;3.10;;;13.50;43.00;;;;;;10408414;28;20221;-70
2022/11/08 09:43:40;;;;;;;3.30;3.00;;;13.70;43.20;;;;;;10409138;28;20664;-70
2022/11/08 09:48:45;;;;;;;2.90;2.60;;;13.90;42.70;;;;;;10415897;28;20221;-69
2022/11/08 09:53:52;;;;;;;2.83;2.40;;;14.10;43.20;;;;;;10411081;28;20241;-70
2022/11/08 09:59:01;;;;;;;3.33;2.67;;;14.30;42.70;;;;;;10416580;28;20221;-69
2022/11/08 10:04:10;;;;;;;2.97;2.53;;;14.50;42.70;;;;;;10414709;28;20225;-69
2022/11/08 10:09:30;;;;;;;2.17;2.03;;;14.70;42.40;;;;;;10404077;28;20221;-69
2022/11/08 10:14:46;;;;;;;2.23;2.03;;;14.90;41.90;;;;;;10408754;28;20232;-69
2022/11/08 10:20:08;;;;;;;2.23;2.07;;;15.20;41.50;;;;;;10406875;28;20221;-69
2022/11/08 10:25:19;;;;;;;3.10;2.70;;;15.30;41.10;;;;;;10407117;28;20227;-69
2022/11/08 10:30:26;;;;;;;3.20;2.30;;;15.50;41.10;;;;;;10402108;28;20225;-69
2022/11/08 10:35:36;;;;;;;3.57;2.43;;;15.60;41.50;;;;;;10386444;28;20603;-69
2022/11/08 10:40:49;;;;;;;2.93;2.73;;;15.60;41.20;;;;;;10384684;28;20236;-69
2022/11/08 10:45:53;;;;;;;3.67;1.90;;;15.70;40.80;;;;;;10388399;28;20233;-69
2022/11/08 10:50:56;;;;;;;2.20;2.10;;;15.80;41.30;;;;;;10382172;28;20230;-69
2022/11/08 10:56:02;;;;;;;1.80;1.70;;;15.90;41.20;;;;;;10384029;28;20244;-70
2022/11/08 11:01:14;;;;;;;1.70;1.60;;;16.00;40.20;;;;;;10382428;28;20221;-69
2022/11/08 11:06:24;;;;;;;1.70;1.60;;;16.00;39.60;;;;;;10380646;28;20234;-70
2022/11/08 11:11:37;;;;;;;1.73;1.63;;;16.00;39.40;;;;;;10385870;28;20333;-70
2022/11/08 11:16:53;;;;;;;1.77;1.63;;;16.10;39.40;;;;;;10384379;28;20317;-70
2022/11/08 11:22:01;;;;;;;2.13;1.93;;;16.20;39.30;;;;;;10380242;28;20702;-71
2022/11/08 11:27:16;;;;;;;1.83;1.73;;;16.30;39.90;;;;;;10380142;28;20900;-68
2022/11/08 11:32:25;;;;;;;1.80;1.70;;;16.40;39.50;;;;;;10388161;28;20234;-68
2022/11/08 11:37:42;;;;;;;1.80;1.70;;;16.50;39.00;;;;;;10387165;28;20332;-68
2022/11/08 11:42:56;;;;;;;1.57;1.47;;;16.50;38.00;;;;;;10384842;28;20806;-68
2022/11/08 11:48:03;;;;;;;2.00;1.80;;;16.60;38.10;;;;;;10380355;28;20254;-68
2022/11/08 11:53:14;;;;;;;2.00;1.90;;;16.70;38.80;;;;;;10377991;28;20233;-68
2022/11/08 11:58:33;;;;;;;2.47;1.90;;;16.70;38.10;;;;;;10379811;28;20231;-68
2022/11/08 12:03:53;;;;;;;1.80;1.70;;;16.80;37.80;;;;;;10384641;28;20225;-68
2022/11/08 12:09:12;;;;;;;1.83;1.73;;;16.80;37.80;;;;;;10382244;28;20701;-69
2022/11/08 12:14:54;;;;;;;1.90;1.70;;;16.90;37.90;;;;;;10383029;28;20229;-69
2022/11/08 12:20:11;;;;;;;1.87;1.60;;;16.90;38.60;;;;;;10327461;28;20252;-69
2022/11/08 12:25:20;;;;;;;1.70;1.60;;;17.00;38.00;;;;;;10372554;28;20232;-71
2022/11/08 12:30:36;;;;;;;2.30;1.80;;;17.10;37.90;;;;;;10376355;28;20237;-68
2022/11/08 12:35:53;;;;;;;5.17;1.83;;;17.10;37.30;;;;;;10379124;28;20217;-68
2022/11/08 12:41:04;;;;;;;2.30;1.80;;;17.20;37.00;;;;;;10383107;28;20226;-75
2022/11/08 12:46:15;;;;;;;1.90;1.80;;;17.20;37.50;;;;;;10375130;28;20629;-73
2022/11/08 12:51:25;;;;;;;1.90;1.80;;;17.20;37.10;;;;;;10378274;28;20237;-75
2022/11/08 12:56:35;;;;;;;1.90;1.80;;;17.30;38.00;;;;;;10379459;28;20713;-75
2022/11/08 13:01:40;;;;;;;1.73;1.63;;;17.30;37.60;;;;;;10380035;28;20237;-68
2022/11/08 13:06:48;;;;;;;2.00;1.80;;;17.30;37.70;;;;;;10372159;28;20225;-67
2022/11/08 13:12:00;;;;;;;1.80;1.70;;;17.40;37.60;;;;;;10373664;28;20237;-69
2022/11/08 13:17:21;;;;;;;2.17;1.97;;;17.40;37.10;;;;;;10375491;28;20225;-69
2022/11/08 13:22:46;;;;;;;1.90;1.80;;;17.40;37.30;;;;;;10373311;28;20705;-75
2022/11/08 13:27:50;;;;;;;2.43;2.00;;;17.50;37.40;;;;;;10384880;28;20232;-75
2022/11/08 13:33:01;;;;;;;1.60;1.50;;;17.50;38.00;;;;;;10370873;28;20232;-75
2022/11/08 13:38:19;;;;;;;3.43;1.80;;;17.50;36.50;;;;;;10340953;28;20900;-71
2022/11/08 13:43:26;;;;;;;2.00;1.60;;;17.50;36.70;;;;;;10342233;28;20760;-70
2022/11/08 13:48:40;;;;;;;1.70;1.60;;;17.50;37.20;;;;;;10372951;28;20234;-69
2022/11/08 13:53:46;;;;;;;1.77;1.67;;;17.50;36.30;;;;;;10380602;28;20230;-69
2022/11/08 13:58:49;;;;;;;3.00;1.70;;;17.60;37.30;;;;;;10377013;28;20644;-67
2022/11/08 14:03:58;;;;;;;2.07;1.60;;;17.60;37.50;;;;;;10383575;28;20241;-75
2022/11/08 14:09:14;;;;;;;1.90;1.80;;;17.60;36.60;;;;;;10389913;28;20222;-75
2022/11/08 14:14:41;;;;;;;1.40;1.30;;;17.60;36.00;;;;;;10386024;28;20232;-70
2022/11/08 14:19:47;;;;;;;1.50;1.40;;;17.60;36.50;;;;;;10382871;28;20218;-71
2022/11/08 14:24:52;;;;;;;1.60;1.50;;;17.60;36.60;;;;;;10389212;28;20768;-71
2022/11/08 14:30:00;;;;;;;1.57;1.47;;;17.60;36.50;;;;;;10388432;28;20218;-71
2022/11/08 14:35:20;;;;;;;2.37;1.70;;;17.60;36.10;;;;;;10383955;28;20269;-68
2022/11/08 14:40:26;;;;;;;1.80;1.70;;;17.50;36.10;;;;;;10374067;28;20240;-67
2022/11/08 14:45:30;;;;;;;2.17;1.97;;;17.50;37.00;;;;;;10376221;28;20237;-75
2022/11/08 14:50:35;;;;;;;4.93;2.53;;;17.40;37.20;;;;;;10376807;28;20320;-75
2022/11/08 14:55:38;;;;;;;2.50;2.10;;;17.40;36.90;;;;;;10383920;28;20230;-71
2022/11/08 15:00:43;;;;;;;3.57;2.40;;;17.30;37.00;;;;;;10378395;28;20233;-70
2022/11/08 15:05:55;;;;;;;3.73;2.53;;;17.30;37.20;;;;;;10379774;28;20675;-71
2022/11/08 15:11:02;;;;;;;7.73;4.67;;;17.20;37.50;;;;;;10382791;28;20226;-70
2022/11/08 15:16:07;;;;;;;6.20;4.13;;;17.10;37.20;;;;;;10379076;28;20239;-71
2022/11/08 15:21:26;;;;;;;6.63;4.33;;;17.00;37.80;;;;;;10377801;28;20727;-71
2022/11/08 15:26:33;;;;;;;8.13;5.30;;;16.90;37.20;;;;;;10382416;28;20229;-71
2022/11/08 15:31:40;;;;;;;8.57;5.30;;;16.80;37.40;;;;;;10380172;28;20237;-70
2022/11/08 15:36:44;;;;;;;14.37;9.63;;;16.70;37.60;;;;;;10382395;28;20226;-71
2022/11/08 15:41:59;;;;;;;16.23;11.07;;;16.60;37.70;;;;;;10376834;28;20240;-71
2022/11/08 15:47:02;;;;;;;18.80;13.30;;;16.50;37.80;;;;;;10378613;28;20226;-70
2022/11/08 15:52:07;;;;;;;17.40;13.30;;;16.40;37.90;;;;;;10381594;28;20584;-70
2022/11/08 15:57:11;;;;;;;38.23;28.77;;;16.30;37.80;;;;;;10384204;28;20888;-68
2022/11/08 16:02:14;;;;;;;35.77;26.33;;;16.20;37.90;;;;;;10379414;28;20299;-67
2022/11/08 16:07:19;;;;;;;29.77;24.43;;;16.10;38.10;;;;;;10383675;28;20231;-67
2022/11/08 16:12:22;;;;;;;27.47;22.47;;;16.00;38.20;;;;;;10378700;28;20233;-69
2022/11/08 16:17:25;;;;;;;25.93;21.07;;;15.90;38.10;;;;;;10381851;28;20230;-75
2022/11/08 16:22:30;;;;;;;26.70;20.20;;;15.80;38.30;;;;;;10377986;28;20234;-74
2022/11/08 16:27:33;;;;;;;28.80;21.40;;;15.80;38.50;;;;;;10379208;28;21034;-73
2022/11/08 16:32:36;;;;;;;23.73;21.20;;;15.60;38.40;;;;;;10378041;28;20627;-66
2022/11/08 16:37:41;;;;;;;29.27;24.73;;;15.60;38.50;;;;;;10382120;28;20235;-73
2022/11/08 16:42:45;;;;;;;32.60;29.20;;;15.60;38.50;;;;;;10375191;28;20226;-73
2022/11/08 16:47:50;;;;;;;31.63;28.33;;;15.50;38.50;;;;;;10376106;28;20677;-66
2022/11/08 16:52:55;;;;;;;29.40;26.27;;;15.40;38.50;;;;;;10382457;28;20266;-73
2022/11/08 16:57:58;;;;;;;27.53;24.63;;;15.40;38.60;;;;;;10373555;28;20250;-73
2022/11/08 17:03:01;;;;;;;24.33;19.90;;;15.30;38.60;;;;;;10379189;28;20229;-73
2022/11/08 17:08:06;;;;;;;38.13;26.17;;;15.20;38.50;;;;;;10378803;28;20226;-73
2022/11/08 17:13:12;;;;;;;22.73;16.30;;;15.10;38.70;;;;;;10376926;28;20594;-72
2022/11/08 17:18:18;;;;;;;16.60;13.40;;;15.00;38.70;;;;;;10372384;28;20312;-74
2022/11/08 17:23:23;;;;;;;10.20;8.33;;;14.90;38.70;;;;;;10377608;28;20288;-73
2022/11/08 17:28:26;;;;;;;9.57;8.57;;;14.70;38.80;;;;;;10378251;28;20748;-74
2022/11/08 17:33:29;;;;;;;12.60;11.30;;;14.60;38.90;;;;;;10376458;28;20738;-73
2022/11/08 17:38:35;;;;;;;9.87;8.77;;;14.50;39.00;;;;;;10373583;28;20706;-74
2022/11/08 17:43:39;;;;;;;10.23;9.13;;;14.50;39.40;;;;;;10382591;28;20229;-74
2022/11/08 17:48:42;;;;;;;12.13;10.93;;;14.50;39.30;;;;;;10383375;28;20252;-70
2022/11/08 17:53:46;;;;;;;10.20;9.20;;;14.40;39.30;;;;;;10387863;28;20245;-70
2022/11/08 17:58:50;;;;;;;11.03;9.93;;;14.40;39.40;;;;;;10386927;28;20283;-69
2022/11/08 18:03:53;;;;;;;14.03;12.20;;;14.40;39.60;;;;;;10387414;28;20703;-69
2022/11/08 18:08:57;;;;;;;14.53;12.30;;;14.40;39.60;;;;;;10382592;28;20226;-69
2022/11/08 18:14:01;;;;;;;12.27;10.93;;;14.30;39.40;;;;;;10382057;28;20757;-69
2022/11/08 18:19:04;;;;;;;11.90;10.80;;;14.30;39.40;;;;;;10376500;28;20283;-68
2022/11/08 18:24:09;;;;;;;12.90;9.53;;;14.20;39.40;;;;;;10376168;28;20249;-68
2022/11/08 18:29:12;;;;;;;12.00;10.67;;;14.10;39.70;;;;;;10371381;28;20236;-68
2022/11/08 18:34:15;;;;;;;11.80;10.57;;;14.10;39.70;;;;;;10383549;28;20236;-73
2022/11/08 18:39:22;;;;;;;18.70;16.43;;;14.10;39.90;;;;;;10385493;28;20253;-69
2022/11/08 18:44:25;;;;;;;17.57;15.37;;;14.00;40.00;;;;;;10388792;28;20234;-68
2022/11/08 18:49:28;;;;;;;17.10;14.83;;;14.00;39.90;;;;;;10382408;28;20233;-68
2022/11/08 18:54:32;;;;;;;30.57;22.20;;;14.00;40.00;;;;;;10384118;28;20229;-68
2022/11/08 18:59:35;;;;;;;24.50;20.27;;;13.90;40.20;;;;;;10385951;28;20793;-67
2022/11/08 19:04:39;;;;;;;34.57;25.70;;;13.90;40.20;;;;;;10386622;28;20656;-67
2022/11/08 19:09:43;;;;;;;41.23;30.20;;;13.90;40.20;;;;;;10386747;28;20221;-68
2022/11/08 19:14:46;;;;;;;33.20;25.97;;;14.00;40.30;;;;;;10381868;28;20275;-68
2022/11/08 19:19:49;;;;;;;23.70;17.87;;;13.90;40.00;;;;;;10381578;28;20242;-68
2022/11/08 19:24:54;;;;;;;19.03;16.47;;;13.90;40.00;;;;;;10379082;28;20230;-74
2022/11/08 19:29:59;;;;;;;17.17;14.13;;;13.80;40.10;;;;;;10381876;28;20222;-74
2022/11/08 19:35:02;;;;;;;15.50;13.40;;;13.80;40.10;;;;;;10378742;28;20230;-73
2022/11/08 19:40:09;;;;;;;15.53;13.00;;;13.80;40.10;;;;;;10374513;28;20222;-74
2022/11/08 19:45:12;;;;;;;16.40;13.40;;;13.70;40.00;;;;;;10380943;28;20230;-74
2022/11/08 19:50:15;;;;;;;14.27;12.73;;;13.70;40.00;;;;;;10373915;28;20714;-74
2022/11/08 19:55:20;;;;;;;17.57;14.27;;;13.60;39.90;;;;;;10382190;28;20234;-74
2022/11/08 20:00:23;;;;;;;24.43;20.83;;;13.60;40.10;;;;;;10375263;28;20396;-74
2022/11/08 20:05:27;;;;;;;21.77;18.53;;;13.60;40.10;;;;;;10377352;28;20233;-74
2022/11/08 20:10:31;;;;;;;32.53;25.53;;;13.50;40.00;;;;;;10376544;28;20233;-68
2022/11/08 20:15:35;;;;;;;21.30;17.63;;;13.40;40.10;;;;;;10367777;28;20233;-68
2022/11/08 20:20:39;;;;;;;14.73;13.23;;;13.40;40.10;;;;;;10376732;28;20638;-70
2022/11/08 20:25:43;;;;;;;12.80;11.07;;;13.30;40.00;;;;;;10381056;28;20246;-69
2022/11/08 20:30:47;;;;;;;12.27;11.07;;;13.20;40.40;;;;;;10380382;28;20251;-70
2022/11/08 20:35:50;;;;;;;13.93;11.00;;;13.10;40.10;;;;;;10371306;28;20222;-71
2022/11/08 20:40:54;;;;;;;14.30;11.63;;;13.10;40.10;;;;;;10364481;28;20222;-68
2022/11/08 20:46:01;;;;;;;16.43;14.63;;;13.10;40.20;;;;;;10350351;28;20236;-69
2022/11/08 20:51:06;;;;;;;26.47;21.43;;;13.00;40.00;;;;;;10356186;28;20222;-68
2022/11/08 20:56:13;;;;;;;19.37;15.60;;;13.00;39.90;;;;;;10355588;28;20283;-68
2022/11/08 21:01:18;;;;;;;20.40;18.00;;;12.80;39.90;;;;;;10355037;28;20272;-68
2022/11/08 21:06:23;;;;;;;21.07;17.67;;;12.80;40.10;;;;;;10359928;28;20275;-68
2022/11/08 21:11:29;;;;;;;12.37;11.07;;;12.70;40.00;;;;;;10361253;28;20234;-68
2022/11/08 21:16:32;;;;;;;10.30;9.27;;;12.70;40.10;;;;;;10359778;28;20316;-74
2022/11/08 21:22:13;;;;;;;9.37;8.47;;;12.70;40.00;;;;;;10356785;28;20707;-69
2022/11/08 21:27:18;;;;;;;10.10;9.17;;;12.60;39.90;;;;;;10366971;28;20826;-69
2022/11/08 21:32:21;;;;;;;7.97;7.27;;;12.60;40.10;;;;;;10374588;28;20232;-70
2022/11/08 21:37:25;;;;;;;8.93;8.03;;;12.50;39.80;;;;;;10388856;28;20237;-73
2022/11/08 21:42:29;;;;;;;7.27;6.57;;;12.50;40.00;;;;;;10359065;28;20264;-74
2022/11/08 21:47:38;;;;;;;10.37;8.80;;;12.40;40.10;;;;;;10365178;28;20362;-70
2022/11/08 21:52:42;;;;;;;11.20;8.97;;;12.30;39.90;;;;;;10367140;28;20908;-70
2022/11/08 21:57:46;;;;;;;11.17;8.77;;;12.30;39.90;;;;;;10363799;28;20304;-70
2022/11/08 22:02:49;;;;;;;8.43;7.47;;;12.20;39.90;;;;;;10363349;28;20236;-69
2022/11/08 22:07:53;;;;;;;8.03;7.23;;;12.20;39.80;;;;;;10363956;28;20233;-71
2022/11/08 22:12:57;;;;;;;15.13;10.27;;;12.20;39.90;;;;;;10367963;28;20233;-71
2022/11/08 22:18:00;;;;;;;14.63;10.87;;;12.10;40.00;;;;;;10359344;28;20223;-71
2022/11/08 22:23:19;;;;;;;14.90;10.03;;;12.10;40.00;;;;;;10365343;28;21398;-71
2022/11/08 22:28:24;;;;;;;12.13;9.23;;;12.00;39.90;;;;;;10369395;28;20244;-71
2022/11/08 22:33:27;;;;;;;13.70;10.27;;;11.90;40.00;;;;;;10370453;28;20991;-70
2022/11/08 22:38:30;;;;;;;10.43;8.63;;;11.90;39.90;;;;;;10372314;28;20226;-70
2022/11/08 22:43:35;;;;;;;8.63;7.80;;;11.80;39.80;;;;;;10371337;28;20234;-69
2022/11/08 22:48:39;;;;;;;9.20;7.10;;;11.70;40.20;;;;;;10382116;28;20883;-76
2022/11/08 22:53:42;;;;;;;7.80;6.63;;;11.60;40.10;;;;;;10375191;28;20661;-74
2022/11/08 22:58:47;;;;;;;6.47;5.87;;;11.60;40.00;;;;;;10374133;28;20245;-75
2022/11/08 23:03:50;;;;;;;8.50;7.60;;;11.50;40.10;;;;;;10367412;28;20237;-74
2022/11/08 23:08:53;;;;;;;7.60;6.80;;;11.50;40.10;;;;;;10383203;28;20237;-70
2022/11/08 23:24:42;;;;;;;8.90;8.00;;;11.30;40.30;;;;;;10406981;28;20697;-70
2022/11/08 23:35:08;;;;;;;7.20;6.50;;;11.20;40.40;;;;;;10385032;28;20225;-70
2022/11/08 23:45:35;;;;;;;7.77;6.70;;;11.10;40.60;;;;;;10389684;28;20595;-71
2022/11/08 23:50:39;;;;;;;7.63;6.60;;;11.00;40.80;;;;;;10378298;28;20794;-70
2022/11/08 23:55:42;;;;;;;7.27;6.43;;;11.00;40.80;;;;;;10385799;28;20283;-71
